createdAt,value
2022-09-10T00:01:23.009Z,16.90
2022-09-10T00:03:51.215Z,17.00
2022-09-10T00:06:19.871Z,17.00
2022-09-10T00:08:48.199Z,17.00
2022-09-10T00:11:16.890Z,17.10
2022-09-10T00:13:45.429Z,17.00
2022-09-10T00:16:15.263Z,17.10
2022-09-10T00:18:44.853Z,17.10
2022-09-10T00:21:14.323Z,17.00
2022-09-10T00:23:45.812Z,17.00
2022-09-10T00:26:15.928Z,17.00
2022-09-10T00:28:47.276Z,17.10
2022-09-10T00:31:15.709Z,17.10
2022-09-10T00:33:45.674Z,17.10
2022-09-10T00:36:17.430Z,17.00
2022-09-10T00:38:46.912Z,17.10
2022-09-10T00:41:15.785Z,17.00
2022-09-10T00:43:54.782Z,17.10
2022-09-10T00:46:32.924Z,17.00
2022-09-10T00:49:05.252Z,17.10
2022-09-10T00:51:34.654Z,17.00
2022-09-10T00:54:03.406Z,17.00
2022-09-10T00:56:31.625Z,17.00
2022-09-10T00:59:02.214Z,16.90
2022-09-10T01:01:31.254Z,16.90
2022-09-10T01:03:59.682Z,16.90
2022-09-10T01:06:29.403Z,16.90
2022-09-10T01:08:57.928Z,16.90
2022-09-10T01:11:47.941Z,16.90
2022-09-10T01:14:28.160Z,16.90
2022-09-10T01:16:59.748Z,16.80
2022-09-10T01:19:48.696Z,16.90
2022-09-10T01:22:21.966Z,16.90
2022-09-10T01:24:55.827Z,16.90
2022-09-10T01:27:47.277Z,16.90
2022-09-10T01:30:18.082Z,16.90
2022-09-10T01:32:59.516Z,16.90
2022-09-10T01:35:30.444Z,16.90
2022-09-10T01:38:00.952Z,16.80
2022-09-10T01:40:31.226Z,16.90
2022-09-10T01:43:07.165Z,16.80
2022-09-10T01:45:38.990Z,16.80
2022-09-10T01:48:48.596Z,16.80
2022-09-10T01:51:21.035Z,16.80
2022-09-10T01:54:00.358Z,16.80
2022-09-10T01:56:35.769Z,16.80
2022-09-10T01:59:11.608Z,16.70
2022-09-10T02:01:41.904Z,16.70
2022-09-10T02:04:10.887Z,16.70
2022-09-10T02:06:40.202Z,16.70
2022-09-10T02:09:08.657Z,16.70
2022-09-10T02:11:54.788Z,16.70
2022-09-10T02:14:24.461Z,16.70
2022-09-10T02:16:58.329Z,16.70
2022-09-10T02:19:26.584Z,16.60
2022-09-10T02:21:58.308Z,16.60
2022-09-10T02:24:27.301Z,16.60
2022-09-10T02:26:55.607Z,16.60
2022-09-10T02:29:25.516Z,16.60
2022-09-10T02:31:53.783Z,16.60
2022-09-10T02:34:22.004Z,16.60
2022-09-10T02:36:50.226Z,16.60
2022-09-10T02:39:18.531Z,16.60
2022-09-10T02:41:48.178Z,16.60
2022-09-10T02:44:17.713Z,16.60
2022-09-10T02:46:47.947Z,16.60
2022-09-10T02:49:16.366Z,16.60
2022-09-10T02:51:44.832Z,16.70
2022-09-10T02:54:13.397Z,16.70
2022-09-10T02:56:43.438Z,16.70
2022-09-10T02:59:14.479Z,16.70
2022-09-10T03:01:42.837Z,16.80
2022-09-10T03:04:12.556Z,16.80
2022-09-10T03:06:40.979Z,16.80
2022-09-10T03:09:09.127Z,16.90
2022-09-10T03:11:40.816Z,16.90
2022-09-10T03:14:10.523Z,16.90
2022-09-10T03:16:40.315Z,16.90
2022-09-10T03:19:09.219Z,16.90
2022-09-10T03:21:41.452Z,17.00
2022-09-10T03:24:10.479Z,17.00
2022-09-10T03:26:39.153Z,17.00
2022-09-10T03:29:07.346Z,17.00
2022-09-10T03:31:36.587Z,17.00
2022-09-10T03:34:05.273Z,17.00
2022-09-10T03:36:33.324Z,17.00
2022-09-10T03:39:03.179Z,17.00
2022-09-10T03:41:32.036Z,17.00
2022-09-10T03:44:00.405Z,16.90
2022-09-10T03:46:28.956Z,16.90
2022-09-10T03:48:58.799Z,16.90
2022-09-10T03:51:27.560Z,17.00
2022-09-10T03:53:55.981Z,17.00
2022-09-10T03:56:25.956Z,17.00
2022-09-10T03:58:54.002Z,17.00
2022-09-10T04:01:24.924Z,17.00
2022-09-10T04:03:55.697Z,17.00
2022-09-10T04:06:24.207Z,16.90
2022-09-10T04:08:53.026Z,17.00
2022-09-10T04:11:24.183Z,17.00
2022-09-10T04:13:54.506Z,17.00
2022-09-10T04:16:23.544Z,17.00
2022-09-10T04:18:51.726Z,17.00
2022-09-10T04:21:20.495Z,17.00
2022-09-10T04:23:48.666Z,17.00
2022-09-10T04:26:18.079Z,17.00
2022-09-10T04:28:47.486Z,16.90
2022-09-10T04:31:17.529Z,16.90
2022-09-10T04:33:46.533Z,16.90
2022-09-10T04:36:14.753Z,16.90
2022-09-10T04:38:46.736Z,16.90
2022-09-10T04:41:20.976Z,16.90
2022-09-10T04:43:54.553Z,16.90
2022-09-10T04:46:42.204Z,16.90
2022-09-10T04:49:12.526Z,16.90
2022-09-10T04:51:41.517Z,16.90
2022-09-10T04:54:09.718Z,16.90
2022-09-10T04:56:37.809Z,17.00
2022-09-10T04:59:07.143Z,17.00
2022-09-10T05:01:36.686Z,17.00
2022-09-10T05:04:04.910Z,17.00
2022-09-10T05:06:33.231Z,17.00
2022-09-10T05:09:01.441Z,17.00
2022-09-10T05:11:29.525Z,17.00
2022-09-10T05:14:05.972Z,17.10
2022-09-10T05:16:41.089Z,17.10
2022-09-10T05:19:09.341Z,17.10
2022-09-10T05:21:37.640Z,17.10
2022-09-10T05:24:12.035Z,17.10
2022-09-10T05:26:40.462Z,17.20
2022-09-10T05:29:08.706Z,17.20
2022-09-10T05:31:38.277Z,17.20
2022-09-10T05:34:06.620Z,17.20
2022-09-10T05:36:34.887Z,17.20
2022-09-10T05:39:03.987Z,17.30
2022-09-10T05:41:32.788Z,17.30
2022-09-10T05:44:21.351Z,17.30
2022-09-10T05:46:52.231Z,17.30
2022-09-10T05:49:23.161Z,17.30
2022-09-10T05:51:51.326Z,17.30
2022-09-10T05:54:20.676Z,17.30
2022-09-10T05:56:49.176Z,17.30
2022-09-10T05:59:17.253Z,17.30
2022-09-10T06:01:45.351Z,17.30
2022-09-10T06:04:15.018Z,17.30
2022-09-10T06:06:43.294Z,17.30
2022-09-10T06:09:11.485Z,17.40
2022-09-10T06:11:39.666Z,17.30
2022-09-10T06:14:08.118Z,17.30
2022-09-10T06:16:36.283Z,17.30
2022-09-10T06:19:08.511Z,17.40
2022-09-10T06:21:43.775Z,17.30
2022-09-10T06:24:13.233Z,17.40
2022-09-10T06:26:49.438Z,17.30
2022-09-10T06:29:18.854Z,17.30
2022-09-10T06:31:47.958Z,17.40
2022-09-10T06:34:19.078Z,17.40
2022-09-10T06:36:50.882Z,17.40
2022-09-10T06:39:19.342Z,17.40
2022-09-10T06:41:49.700Z,17.50
2022-09-10T06:44:19.163Z,17.50
2022-09-10T06:49:46.608Z,17.60
2022-09-10T06:52:16.071Z,17.60
2022-09-10T06:54:44.840Z,17.60
2022-09-10T06:57:15.989Z,17.70
2022-09-10T06:59:45.006Z,17.70
2022-09-10T07:02:15.539Z,17.70
2022-09-10T07:04:46.402Z,17.80
2022-09-10T07:07:16.211Z,17.80
2022-09-10T07:09:44.505Z,17.80
2022-09-10T07:12:12.945Z,17.90
2022-09-10T07:14:41.053Z,17.90
2022-09-10T07:17:09.094Z,17.90
2022-09-10T07:19:37.832Z,17.90
2022-09-10T07:22:06.053Z,17.90
2022-09-10T07:24:35.824Z,18.10
2022-09-10T07:27:04.228Z,18.30
2022-09-10T07:29:32.446Z,18.60
2022-09-10T07:32:01.845Z,18.90
2022-09-10T07:34:30.398Z,19.00
2022-09-10T07:36:58.506Z,19.20
2022-09-10T07:39:27.215Z,19.50
2022-09-10T07:41:56.906Z,19.70
2022-09-10T07:44:25.153Z,19.60
2022-09-10T07:46:53.704Z,19.50
2022-09-10T07:49:21.942Z,19.50
2022-09-10T07:51:59.113Z,19.60
2022-09-10T07:54:28.691Z,19.70
2022-09-10T07:56:58.167Z,19.70
2022-09-10T07:59:27.744Z,19.60
2022-09-10T08:01:56.114Z,19.60
2022-09-10T08:04:24.997Z,19.50
2022-09-10T08:06:53.215Z,19.60
2022-09-10T08:09:21.456Z,19.90
2022-09-10T08:11:50.880Z,20.30
2022-09-10T08:14:20.589Z,20.50
2022-09-10T08:16:48.664Z,20.50
2022-09-10T08:19:18.131Z,20.40
2022-09-10T08:21:47.675Z,20.20
2022-09-10T08:24:15.815Z,20.00
2022-09-10T08:26:43.953Z,19.90
2022-09-10T08:29:12.235Z,19.90
2022-09-10T08:31:42.517Z,20.10
2022-09-10T08:34:12.033Z,20.30
2022-09-10T08:36:40.719Z,20.50
2022-09-10T08:39:08.999Z,20.70
2022-09-10T08:41:47.781Z,20.90
2022-09-10T08:44:21.638Z,20.90
2022-09-10T08:46:53.578Z,20.80
2022-09-10T08:49:25.589Z,20.80
2022-09-10T08:51:57.254Z,20.70
2022-09-10T08:54:26.089Z,20.60
2022-09-10T08:56:55.479Z,20.50
2022-09-10T08:59:25.430Z,20.40
2022-09-10T09:01:56.864Z,20.30
2022-09-10T09:04:29.917Z,20.30
2022-09-10T09:06:59.754Z,20.50
2022-09-10T09:09:27.859Z,20.80
2022-09-10T09:12:01.818Z,21.00
2022-09-10T09:14:36.742Z,21.20
2022-09-10T09:17:24.909Z,21.50
2022-09-10T09:19:56.117Z,21.90
2022-09-10T09:22:27.463Z,22.00
2022-09-10T09:24:57.498Z,22.00
2022-09-10T09:27:27.269Z,21.90
2022-09-10T09:29:57.610Z,21.70
2022-09-10T09:32:27.350Z,21.80
2022-09-10T09:34:56.478Z,21.90
2022-09-10T09:37:25.998Z,21.80
2022-09-10T09:40:04.434Z,21.70
2022-09-10T09:42:39.934Z,21.80
2022-09-10T09:45:11.535Z,22.10
2022-09-10T09:47:41.911Z,22.30
2022-09-10T09:50:12.770Z,22.30
2022-09-10T09:52:41.281Z,22.30
2022-09-10T09:55:17.376Z,22.40
2022-09-10T09:57:47.267Z,22.70
2022-09-10T10:00:36.519Z,23.00
2022-09-10T10:03:21.933Z,23.40
2022-09-10T10:05:50.288Z,23.70
2022-09-10T10:08:28.997Z,23.80
2022-09-10T10:10:57.668Z,23.80
2022-09-10T10:13:25.850Z,23.70
2022-09-10T10:15:54.255Z,23.60
2022-09-10T10:18:32.834Z,23.50
2022-09-10T10:21:14.461Z,23.50
2022-09-10T10:23:42.767Z,23.30
2022-09-10T10:26:26.513Z,23.00
2022-09-10T10:28:58.677Z,22.80
2022-09-10T10:31:38.993Z,22.40
2022-09-10T10:34:24.569Z,22.10
2022-09-10T10:36:57.228Z,22.10
2022-09-10T10:39:27.062Z,22.40
2022-09-10T10:41:59.870Z,22.80
2022-09-10T10:44:37.401Z,23.00
2022-09-10T10:47:20.324Z,23.00
2022-09-10T10:49:54.707Z,23.10
2022-09-10T10:52:26.252Z,23.30
2022-09-10T10:55:03.230Z,23.50
2022-09-10T10:57:34.776Z,23.70
2022-09-10T11:00:06.730Z,24.00
2022-09-10T11:02:39.598Z,24.20
2022-09-10T11:05:19.380Z,24.40
2022-09-10T11:07:49.241Z,24.50
2022-09-10T11:10:20.875Z,24.70
2022-09-10T11:12:51.613Z,24.80
2022-09-10T11:15:24.078Z,24.50
2022-09-10T11:17:59.111Z,24.40
2022-09-10T11:20:30.448Z,24.40
2022-09-10T11:23:01.009Z,24.60
2022-09-10T11:25:30.170Z,24.50
2022-09-10T11:28:02.156Z,24.30
2022-09-10T11:30:30.311Z,24.10
2022-09-10T11:33:00.623Z,23.90
2022-09-10T11:35:32.220Z,23.80
2022-09-10T11:38:07.804Z,23.90
2022-09-10T11:40:40.085Z,24.20
2022-09-10T11:43:11.360Z,24.50
2022-09-10T11:45:46.805Z,24.80
2022-09-10T11:48:22.918Z,25.10
2022-09-10T11:50:56.108Z,25.40
2022-09-10T11:53:25.253Z,25.60
2022-09-10T11:56:20.851Z,25.70
2022-09-10T11:58:54.857Z,25.80
2022-09-10T12:01:29.372Z,25.80
2022-09-10T12:04:27.961Z,25.80
2022-09-10T12:07:01.455Z,25.90
2022-09-10T12:09:31.707Z,26.00
2022-09-10T12:12:03.603Z,26.00
2022-09-10T12:14:31.635Z,25.90
2022-09-10T12:17:02.783Z,26.00
2022-09-10T12:19:31.778Z,26.20
2022-09-10T12:22:03.352Z,26.00
2022-09-10T12:24:32.250Z,25.60
2022-09-10T12:27:04.351Z,25.30
2022-09-10T12:29:34.432Z,25.00
2022-09-10T12:32:29.113Z,24.70
2022-09-10T12:35:46.187Z,24.30
2022-09-10T12:38:52.410Z,23.90
2022-09-10T12:41:55.588Z,23.80
2022-09-10T12:44:45.158Z,24.10
2022-09-10T12:47:40.133Z,24.60
2022-09-10T12:50:18.320Z,25.00
2022-09-10T12:52:55.633Z,25.40
2022-09-10T12:55:29.250Z,25.60
2022-09-10T12:58:02.621Z,25.90
2022-09-10T13:00:32.685Z,25.90
2022-09-10T13:03:11.438Z,26.00
2022-09-10T13:05:42.010Z,26.20
2022-09-10T13:08:13.624Z,26.50
2022-09-10T13:10:43.460Z,26.60
2022-09-10T13:13:25.551Z,26.30
2022-09-10T13:15:54.515Z,26.00
2022-09-10T13:18:27.126Z,25.60
2022-09-10T13:20:55.574Z,25.10
2022-09-10T13:23:25.222Z,25.10
2022-09-10T13:25:55.293Z,25.30
2022-09-10T13:29:02.381Z,25.60
2022-09-10T13:31:32.644Z,25.80
2022-09-10T13:34:33.196Z,26.00
2022-09-10T13:37:20.353Z,26.30
2022-09-10T13:40:29.116Z,26.50
2022-09-10T13:43:16.263Z,26.80
2022-09-10T13:45:49.025Z,26.90
2022-09-10T13:48:20.758Z,27.00
2022-09-10T13:50:51.203Z,27.00
2022-09-10T13:53:19.779Z,27.00
2022-09-10T13:55:54.065Z,27.00
2022-09-10T13:58:28.630Z,27.10
2022-09-10T14:00:58.394Z,27.20
2022-09-10T14:03:30.587Z,27.10
2022-09-10T14:05:59.339Z,27.20
2022-09-10T14:08:30.734Z,27.30
2022-09-10T14:11:00.635Z,27.30
2022-09-10T14:13:44.121Z,27.40
2022-09-10T14:16:13.840Z,27.50
2022-09-10T14:18:45.066Z,27.20
2022-09-10T14:21:14.564Z,26.50
2022-09-10T14:23:46.354Z,26.00
2022-09-10T14:26:17.411Z,26.10
2022-09-10T14:28:56.517Z,26.20
2022-09-10T14:31:31.140Z,26.20
2022-09-10T14:33:59.443Z,26.00
2022-09-10T14:36:34.846Z,25.70
2022-09-10T14:39:07.614Z,25.60
2022-09-10T14:41:36.038Z,25.40
2022-09-10T14:44:35.268Z,25.10
2022-09-10T14:47:14.503Z,24.90
2022-09-10T14:49:44.763Z,25.00
2022-09-10T14:52:13.074Z,25.30
2022-09-10T14:54:41.824Z,25.50
2022-09-10T14:57:14.049Z,25.50
2022-09-10T14:59:43.957Z,25.40
2022-09-10T15:02:16.481Z,25.20
2022-09-10T15:04:45.236Z,25.00
2022-09-10T15:07:14.688Z,24.80
2022-09-10T15:09:42.953Z,24.80
2022-09-10T15:12:13.434Z,24.90
2022-09-10T15:14:43.289Z,24.90
2022-09-10T15:17:12.395Z,25.00
2022-09-10T15:19:40.665Z,24.80
2022-09-10T15:22:09.123Z,24.40
2022-09-10T15:24:58.765Z,24.10
2022-09-10T15:27:27.446Z,23.90
2022-09-10T15:29:58.004Z,23.60
2022-09-10T15:32:26.198Z,23.60
2022-09-10T15:34:54.806Z,23.70
2022-09-10T15:37:23.220Z,24.00
2022-09-10T15:39:51.783Z,24.00
2022-09-10T15:42:20.936Z,24.00
2022-09-10T15:44:49.157Z,23.90
2022-09-10T15:47:18.738Z,23.80
2022-09-10T15:49:47.386Z,23.70
2022-09-10T15:52:15.660Z,23.60
2022-09-10T15:54:44.017Z,23.60
2022-09-10T15:57:12.095Z,23.70
2022-09-10T15:59:40.678Z,23.90
2022-09-10T16:02:10.284Z,24.00
2022-09-10T16:04:42.917Z,24.10
2022-09-10T16:07:11.426Z,24.20
2022-09-10T16:09:39.689Z,24.30
2022-09-10T16:12:08.236Z,24.30
2022-09-10T16:14:36.696Z,24.30
2022-09-10T16:17:10.933Z,24.30
2022-09-10T16:19:40.614Z,24.30
2022-09-10T16:22:08.913Z,24.20
2022-09-10T16:24:37.114Z,24.20
2022-09-10T16:27:05.520Z,24.00
2022-09-10T16:29:33.769Z,23.90
2022-09-10T16:32:01.986Z,23.80
2022-09-10T16:34:30.158Z,23.60
2022-09-10T16:36:59.838Z,23.50
2022-09-10T16:39:28.109Z,23.40
2022-09-10T16:41:56.896Z,23.30
2022-09-10T16:44:24.942Z,23.20
2022-09-10T16:46:53.039Z,23.10
2022-09-10T16:49:24.548Z,22.90
2022-09-10T16:51:52.679Z,22.70
2022-09-10T16:54:23.106Z,22.50
2022-09-10T16:56:51.550Z,22.30
2022-09-10T16:59:22.787Z,22.20
2022-09-10T17:01:52.083Z,22.10
2022-09-10T17:04:26.008Z,22.00
2022-09-10T17:06:56.172Z,21.80
2022-09-10T17:09:26.198Z,21.70
2022-09-10T17:11:54.465Z,21.70
2022-09-10T17:14:22.767Z,21.70
2022-09-10T17:16:50.863Z,21.50
2022-09-10T17:19:20.225Z,21.50
2022-09-10T17:21:51.419Z,21.40
2022-09-10T17:24:20.864Z,21.40
2022-09-10T17:26:50.741Z,21.30
2022-09-10T17:29:20.193Z,21.20
2022-09-10T17:31:48.461Z,21.20
2022-09-10T17:34:17.183Z,21.10
2022-09-10T17:36:55.723Z,21.10
2022-09-10T17:39:28.218Z,21.00
2022-09-10T17:41:58.858Z,21.00
2022-09-10T17:44:27.513Z,21.00
2022-09-10T17:46:57.582Z,21.00
2022-09-10T17:49:25.707Z,20.90
2022-09-10T17:51:54.039Z,20.90
2022-09-10T17:54:23.649Z,20.80
2022-09-10T17:56:52.072Z,20.80
2022-09-10T17:59:22.279Z,20.80
2022-09-10T18:01:50.495Z,20.70
2022-09-10T18:04:19.106Z,20.70
2022-09-10T18:06:52.020Z,20.60
2022-09-10T18:09:20.587Z,20.60
2022-09-10T18:11:48.670Z,20.50
2022-09-10T18:14:18.693Z,20.50
2022-09-10T18:16:56.062Z,20.40
2022-09-10T18:19:24.247Z,20.40
2022-09-10T18:21:52.315Z,20.40
2022-09-10T18:24:22.618Z,20.40
2022-09-10T18:26:53.785Z,20.30
2022-09-10T18:29:22.787Z,20.30
2022-09-10T18:31:53.134Z,20.30
2022-09-10T18:34:24.052Z,20.20
2022-09-10T18:36:54.868Z,20.20
2022-09-10T18:39:23.846Z,20.20
2022-09-10T18:41:52.434Z,20.20
2022-09-10T18:44:21.829Z,20.20
2022-09-10T18:46:52.787Z,20.20
2022-09-10T18:49:21.787Z,20.10
2022-09-10T18:51:50.041Z,20.10
2022-09-10T18:54:18.564Z,20.10
2022-09-10T18:56:55.272Z,20.00
2022-09-10T18:59:24.281Z,20.00
2022-09-10T19:01:56.010Z,19.90
2022-09-10T19:04:25.433Z,19.90
2022-09-10T19:06:55.126Z,19.90
2022-09-10T19:09:23.747Z,19.90
2022-09-10T19:11:53.004Z,19.90
2022-09-10T19:14:22.172Z,19.80
2022-09-10T19:16:51.248Z,19.80
2022-09-10T19:19:22.258Z,19.80
2022-09-10T19:21:51.461Z,19.70
2022-09-10T19:24:32.760Z,19.70
2022-09-10T19:27:07.535Z,19.70
2022-09-10T19:29:35.947Z,19.60
2022-09-10T19:32:04.681Z,19.60
2022-09-10T19:34:34.264Z,19.60
2022-09-10T19:37:02.599Z,19.60
2022-09-10T19:39:31.201Z,19.50
2022-09-10T19:41:59.365Z,19.50
2022-09-10T19:44:28.050Z,19.50
2022-09-10T19:46:56.707Z,19.50
2022-09-10T19:49:24.865Z,19.50
2022-09-10T19:51:54.341Z,19.40
2022-09-10T19:54:22.831Z,19.40
2022-09-10T19:56:51.002Z,19.40
2022-09-10T19:59:19.307Z,19.40
2022-09-10T20:01:48.132Z,19.40
2022-09-10T20:04:16.883Z,19.40
2022-09-10T20:06:46.102Z,19.40
2022-09-10T20:09:16.775Z,19.40
2022-09-10T20:11:45.535Z,19.40
2022-09-10T20:14:14.341Z,19.40
2022-09-10T20:16:43.333Z,19.40
2022-09-10T20:19:12.190Z,19.30
2022-09-10T20:21:40.471Z,19.20
2022-09-10T20:24:09.052Z,19.20
2022-09-10T20:26:41.244Z,19.10
2022-09-10T20:29:12.179Z,19.10
2022-09-10T20:31:41.433Z,19.10
2022-09-10T20:34:11.848Z,19.00
2022-09-10T20:36:42.342Z,19.00
2022-09-10T20:39:13.741Z,19.00
2022-09-10T20:41:43.374Z,19.00
2022-09-10T20:44:12.936Z,19.00
2022-09-10T20:46:41.598Z,19.00
2022-09-10T20:49:10.694Z,19.00
2022-09-10T20:51:40.641Z,19.00
2022-09-10T20:54:12.394Z,19.00
2022-09-10T20:56:42.274Z,19.00
2022-09-10T20:59:14.728Z,19.00
2022-09-10T21:01:46.128Z,18.90
2022-09-10T21:04:14.604Z,18.80
2022-09-10T21:06:42.853Z,18.80
2022-09-10T21:09:10.948Z,18.80
2022-09-10T21:11:39.140Z,18.80
2022-09-10T21:14:08.927Z,18.80
2022-09-10T21:16:37.746Z,18.70
2022-09-10T21:19:08.010Z,18.70
2022-09-10T21:21:36.699Z,18.80
2022-09-10T21:24:05.879Z,18.80
2022-09-10T21:26:35.451Z,18.80
2022-09-10T21:29:04.803Z,18.80
2022-09-10T21:31:34.502Z,18.80
2022-09-10T21:34:03.601Z,18.80
2022-09-10T21:36:32.212Z,18.70
2022-09-10T21:39:01.495Z,18.70
2022-09-10T21:41:31.800Z,18.70
2022-09-10T21:44:00.197Z,18.70
2022-09-10T21:46:28.737Z,18.70
2022-09-10T21:49:00.861Z,18.60
2022-09-10T21:51:29.271Z,18.60
2022-09-10T21:53:58.393Z,18.60
2022-09-10T21:56:27.823Z,18.50
2022-09-10T21:58:56.845Z,18.50
2022-09-10T22:01:27.867Z,18.50
2022-09-10T22:03:59.660Z,18.40
2022-09-10T22:06:28.408Z,18.40
2022-09-10T22:08:58.564Z,18.40
2022-09-10T22:11:30.581Z,18.40
2022-09-10T22:14:00.970Z,18.40
2022-09-10T22:16:29.441Z,18.40
2022-09-10T22:18:59.484Z,18.40
2022-09-10T22:21:30.740Z,18.40
2022-09-10T22:23:59.227Z,18.30
2022-09-10T22:26:28.714Z,18.30
2022-09-10T22:28:58.201Z,18.30
2022-09-10T22:31:27.423Z,18.30
2022-09-10T22:33:56.515Z,18.30
2022-09-10T22:36:28.898Z,18.20
2022-09-10T22:38:59.349Z,18.20
2022-09-10T22:41:31.752Z,18.20
2022-09-10T22:44:00.171Z,18.10
2022-09-10T22:46:28.686Z,18.10
2022-09-10T22:48:57.046Z,18.10
2022-09-10T22:51:27.506Z,18.10
2022-09-10T22:53:56.467Z,18.10
2022-09-10T22:56:26.250Z,18.10
2022-09-10T22:58:55.661Z,18.00
2022-09-10T23:01:24.879Z,18.00
2022-09-10T23:03:53.377Z,18.00
2022-09-10T23:06:22.254Z,17.90
2022-09-10T23:08:53.121Z,17.90
2022-09-10T23:11:26.220Z,17.90
2022-09-10T23:13:56.568Z,17.90
2022-09-10T23:16:28.943Z,17.90
2022-09-10T23:18:57.895Z,17.90
2022-09-10T23:21:28.777Z,17.90
2022-09-10T23:23:59.258Z,17.90
2022-09-10T23:26:27.753Z,17.90
2022-09-10T23:28:56.036Z,17.90
2022-09-10T23:31:25.051Z,17.90
2022-09-10T23:33:54.514Z,17.90
2022-09-10T23:36:22.634Z,17.80
2022-09-10T23:38:50.773Z,17.80
2022-09-10T23:41:20.438Z,17.80
2022-09-10T23:43:48.818Z,17.80
2022-09-10T23:46:16.998Z,17.80
2022-09-10T23:48:45.992Z,17.80
2022-09-10T23:51:15.558Z,17.80
2022-09-10T23:53:45.190Z,17.90
2022-09-10T23:56:13.685Z,17.90
2022-09-10T23:58:43.548Z,17.90
